Time;durP1;ratioP1;P1;durP2;ratioP2;P2;SDS_P1;SDS_P2;PMS_P1;PMS_P2;Temp;Humidity;BMP_temperature;BMP_pressure;BME280_temperature;BME280_humidity;BME280_pressure;Samples;Min_cycle;Max_cycle;Signal;HPM_P1;HPM_P2
2022/03/29 00:05:04;;;;;;;3.00;2.10;;;;;;;;;;21039283;28;20221;-64
2022/03/29 00:15:06;;;;;;;2.20;1.60;;;;;;;;;;21029281;28;20224;-64
2022/03/29 00:25:09;;;;;;;2.70;1.67;;;;;;;;;;20989155;28;20221;-64
2022/03/29 00:35:11;;;;;;;3.67;1.87;;;;;;;;;;21034853;28;20232;-64
2022/03/29 00:45:13;;;;;;;4.33;1.70;;;;;;;;;;21033129;28;20224;-64
2022/03/29 00:55:16;;;;;;;2.70;1.70;;;;;;;;;;21021242;28;20271;-63
2022/03/29 01:05:18;;;;;;;3.17;1.70;;;;;;;;;;21075042;22;20216;-66
2022/03/29 01:15:22;;;;;;;4.83;1.93;;;16.60;99.90;;;;;;21024337;28;20229;-67
2022/03/29 01:25:27;;;;;;;3.73;2.33;;;13.70;99.90;;;;;;20936607;28;20214;-66
2022/03/29 01:35:30;;;;;;;2.97;2.20;;;;;;;;;;20967469;28;20209;-67
2022/03/29 01:45:32;;;;;;;2.20;1.70;;;;;;;;;;20951493;28;20750;-66
2022/03/29 01:55:35;;;;;;;2.67;1.70;;;;;;;;;;20966133;28;20239;-66
2022/03/29 02:05:37;;;;;;;3.97;1.80;;;;;;;;;;20982146;28;20262;-66
2022/03/29 02:15:40;;;;;;;3.07;1.87;;;13.10;99.90;;;;;;20962448;28;20492;-66
2022/03/29 02:25:46;;;;;;;2.63;1.83;;;14.30;99.90;;;;;;20980637;28;20259;-66
2022/03/29 02:35:47;;;;;;;2.40;1.40;;;;;;;;;;20979277;28;20765;-66
2022/03/29 02:45:49;;;;;;;3.57;2.17;;;;;;;;;;20939956;28;20262;-67
2022/03/29 02:55:51;;;;;;;4.93;1.57;;;;;;;;;;20961330;28;20213;-66
2022/03/29 03:05:53;;;;;;;2.97;2.10;;;;;;;;;;20976344;28;20270;-66
2022/03/29 03:15:55;;;;;;;3.43;1.90;;;;;;;;;;20943109;28;20565;-66
2022/03/29 03:25:57;;;;;;;2.93;1.80;;;;;;;;;;20962330;28;20209;-66
2022/03/29 03:36:00;;;;;;;3.20;1.90;;;;;;;;;;20952645;28;20225;-66
2022/03/29 03:46:01;;;;;;;2.83;1.67;;;;;;;;;;20919571;28;20209;-67
2022/03/29 03:56:03;;;;;;;2.90;1.60;;;12.00;99.90;;;;;;20887350;28;20217;-66
2022/03/29 04:06:05;;;;;;;2.97;1.80;;;;;;;;;;20946874;28;20707;-66
2022/03/29 04:16:07;;;;;;;6.50;2.23;;;;;;;;;;20939379;28;20213;-65
2022/03/29 04:26:09;;;;;;;4.17;2.23;;;;;;;;;;20921970;28;20608;-65
2022/03/29 04:36:11;;;;;;;3.27;2.20;;;;;;;;;;20953486;28;20225;-65
2022/03/29 04:46:13;;;;;;;4.83;2.60;;;;;;;;;;20970195;28;20232;-65
2022/03/29 04:56:15;;;;;;;4.33;2.23;;;;;;;;;;20952479;28;20237;-65
2022/03/29 05:06:17;;;;;;;7.60;3.27;;;;;;;;;;20949213;28;20217;-65
2022/03/29 05:16:20;;;;;;;6.63;2.67;;;;;;;;;;20896913;28;20221;-65
2022/03/29 05:26:21;;;;;;;4.50;2.30;;;;;;;;;;20930594;28;20290;-65
2022/03/29 05:36:24;;;;;;;11.57;2.27;;;;;;;;;;20900868;28;20248;-65
2022/03/29 05:56:46;;;;;;;4.90;2.07;;;;;;;;;;20970899;28;20247;-65
2022/03/29 06:06:48;;;;;;;8.10;2.60;;;;;;;;;;20954987;28;20683;-65
2022/03/29 06:16:49;;;;;;;7.13;2.77;;;;;;;;;;20954051;28;20290;-65
2022/03/29 06:26:51;;;;;;;7.80;3.60;;;;;;;;;;20899747;28;20217;-65
2022/03/29 06:36:53;;;;;;;8.90;3.97;;;;;;;;;;20908175;28;20225;-65
2022/03/29 06:46:57;;;;;;;7.43;2.57;;;;;;;;;;20929285;28;20299;-65
2022/03/29 06:56:58;;;;;;;9.50;2.97;;;;;;;;;;20945803;28;20271;-65
2022/03/29 07:07:00;;;;;;;6.53;3.80;;;12.10;99.90;;;;;;20946568;28;20220;-64
2022/03/29 07:17:05;;;;;;;6.90;3.97;;;;;;;;;;21084567;22;20826;-76
2022/03/29 07:27:07;;;;;;;11.37;5.00;;;;;;;;;;21231841;27;20232;-76
2022/03/29 07:37:09;;;;;;;10.90;5.70;;;;;;;;;;21200592;27;20285;-76
2022/03/29 07:47:11;;;;;;;8.93;5.43;;;;;;;;;;21242450;27;20211;-76
2022/03/29 07:57:12;;;;;;;11.83;5.87;;;;;;;;;;21161502;27;20287;-76
2022/03/29 08:07:14;;;;;;;9.17;4.87;;;;;;;;;;21203011;27;20256;-76
2022/03/29 08:17:16;;;;;;;9.73;5.73;;;;;;;;;;21237297;27;20239;-76
2022/03/29 08:27:18;;;;;;;9.17;5.73;;;;;;;;;;21237862;27;20199;-76
2022/03/29 08:37:20;;;;;;;10.93;6.67;;;;;;;;;;21232513;27;20280;-77
2022/03/29 08:47:23;;;;;;;9.23;5.30;;;;;;;;;;21223705;27;20207;-75
2022/03/29 08:57:25;;;;;;;10.10;5.90;;;;;;;;;;21217220;28;20427;-75
2022/03/29 09:07:44;;;;;;;11.83;6.17;;;14.70;99.90;;;;;;21217283;27;20195;-75
2022/03/29 09:17:47;;;;;;;10.53;5.30;;;14.80;99.90;;;;;;21212900;27;20263;-75
2022/03/29 09:27:49;;;;;;;8.97;5.77;;;;;;;;;;21287126;27;20212;-75
2022/03/29 09:37:50;;;;;;;10.27;6.43;;;;;;;;;;21247834;27;20227;-75
2022/03/29 09:47:53;;;;;;;11.63;6.70;;;;;;;;;;21246386;27;20314;-75
2022/03/29 09:57:59;;;;;;;9.53;5.87;;;16.60;99.90;;;;;;21213327;27;20350;-75
2022/03/29 10:18:28;;;;;;;9.40;6.33;;;17.40;99.90;;;;;;21223160;27;20248;-76
2022/03/29 10:28:30;;;;;;;9.50;6.10;;;17.80;99.90;;;;;;21232955;27;20264;-76
2022/03/29 10:38:47;;;;;;;12.77;6.20;;;;;;;;;;21244219;27;20219;-76
2022/03/29 10:49:07;;;;;;;18.13;7.50;;;;;;;;;;21224902;27;20513;-75
2022/03/29 10:59:10;;;;;;;9.57;6.40;;;;;;;;;;21184574;27;20279;-75
2022/03/29 11:09:18;;;;;;;10.67;6.27;;;;;;;;;;21237005;27;20704;-75
2022/03/29 11:19:38;;;;;;;11.97;7.70;;;17.00;99.90;;;;;;21216839;27;20714;-76
2022/03/29 11:29:40;;;;;;;11.63;6.63;;;;;;;;;;21210554;27;20605;-75
2022/03/29 11:39:42;;;;;;;11.13;6.80;;;;;;;;;;21157643;27;20697;-76
2022/03/29 11:49:49;;;;;;;11.80;7.03;;;;;;;;;;21229240;27;20207;-76
2022/03/29 11:59:55;;;;;;;12.73;7.30;;;;;;;;;;21204780;27;20219;-76
2022/03/29 12:10:22;;;;;;;11.43;7.20;;;;;;;;;;21196863;27;20210;-76
2022/03/29 12:20:35;;;;;;;10.97;6.53;;;;;;;;;;21169664;27;20214;-76
2022/03/29 12:30:36;;;;;;;10.30;6.77;;;;;;;;;;21303858;27;20216;-76
2022/03/29 12:40:38;;;;;;;13.50;7.33;;;;;;;;;;21284347;27;20210;-75
2022/03/29 12:50:40;;;;;;;10.60;6.80;;;18.10;99.90;;;;;;21268587;27;20314;-75
2022/03/29 13:00:44;;;;;;;9.83;6.70;;;17.90;99.90;;;;;;21299496;27;20214;-75
2022/03/29 13:10:46;;;;;;;11.23;7.00;;;;;;;;;;21232683;27;20210;-77
2022/03/29 13:20:48;;;;;;;9.73;6.33;;;18.00;99.90;;;;;;21174506;22;20232;-62
2022/03/29 13:30:50;;;;;;;11.67;7.03;;;;;;;;;;21103815;28;20767;-63
2022/03/29 13:40:52;;;;;;;11.17;6.63;;;17.90;99.90;;;;;;21100086;28;20228;-63
2022/03/29 13:50:55;;;;;;;10.50;6.50;;;;;;;;;;21092986;28;20215;-63
2022/03/29 14:00:56;;;;;;;10.40;6.37;;;;;;;;;;21099741;28;20268;-64
2022/03/29 14:11:00;;;;;;;12.03;6.60;;;17.80;99.90;;;;;;21082736;28;20288;-64
2022/03/29 14:21:02;;;;;;;9.87;6.40;;;;;;;;;;21087131;28;20219;-64
2022/03/29 14:31:04;;;;;;;10.20;6.47;;;;;;;;;;21061799;28;20644;-64
2022/03/29 14:41:06;;;;;;;10.13;6.27;;;;;;;;;;21079005;28;20220;-64
2022/03/29 14:51:08;;;;;;;11.53;6.80;;;;;;;;;;21085512;28;20212;-64
2022/03/29 15:01:10;;;;;;;11.70;5.93;;;;;;;;;;21058537;28;20249;-63
2022/03/29 15:11:12;;;;;;;13.27;6.40;;;;;;;;;;21102092;28;20697;-64
2022/03/29 15:21:15;;;;;;;11.40;6.27;;;;;;;;;;21099495;28;20273;-64
2022/03/29 15:31:17;;;;;;;11.23;6.33;;;;;;;;;;21132031;28;20211;-64
2022/03/29 15:41:19;;;;;;;10.27;6.33;;;;;;;;;;21131128;28;20215;-63
2022/03/29 15:51:22;;;;;;;9.43;5.83;;;;;;;;;;21107820;28;20208;-64
2022/03/29 16:01:24;;;;;;;11.63;6.60;;;;;;;;;;21119691;28;20762;-64
2022/03/29 16:11:26;;;;;;;10.60;5.63;;;;;;;;;;21090034;28;20224;-63
2022/03/29 16:21:28;;;;;;;11.67;6.53;;;;;;;;;;21098190;28;20592;-64
2022/03/29 16:31:38;;;;;;;8.83;5.20;;;;;;;;;;21076284;28;20231;-63
2022/03/29 16:41:40;;;;;;;12.33;7.27;;;;;;;;;;21060274;28;20219;-63
2022/03/29 16:51:42;;;;;;;9.77;5.67;;;;;;;;;;21082282;28;20261;-64
2022/03/29 17:01:44;;;;;;;9.87;6.40;;;;;;;;;;21043165;28;20277;-63
2022/03/29 17:11:47;;;;;;;12.00;6.17;;;;;;;;;;21080471;28;20617;-64
2022/03/29 17:21:49;;;;;;;10.43;6.03;;;;;;;;;;21061165;28;20216;-64
2022/03/29 17:31:51;;;;;;;12.23;5.83;;;;;;;;;;21045613;28;20204;-64
2022/03/29 17:41:53;;;;;;;16.80;7.17;;;;;;;;;;21090861;28;20224;-63
2022/03/29 17:51:56;;;;;;;11.03;7.40;;;;;;;;;;21118425;28;20294;-65
2022/03/29 18:01:58;;;;;;;11.20;8.10;;;;;;;;;;21116830;28;20275;-63
2022/03/29 18:12:03;;;;;;;10.10;6.67;;;;;;;;;;21099725;28;20600;-63
2022/03/29 18:22:07;;;;;;;9.87;5.93;;;;;;;;;;21095195;28;20223;-63
2022/03/29 18:32:11;;;;;;;11.13;5.83;;;16.20;99.90;;;;;;21110300;28;20297;-64
2022/03/29 18:42:15;;;;;;;11.70;6.53;;;;;;;;;;21155360;28;20249;-63
2022/03/29 18:52:17;;;;;;;11.57;6.20;;;;;;;;;;21127267;28;20200;-63
2022/03/29 19:02:19;;;;;;;11.73;5.57;;;;;;;;;;21141495;28;20640;-63
2022/03/29 19:12:22;;;;;;;8.63;5.70;;;15.90;99.90;;;;;;21024185;28;20225;-63
2022/03/29 19:22:25;;;;;;;9.53;6.30;;;;;;;;;;20923430;23;20743;-67
2022/03/29 19:32:27;;;;;;;12.43;6.17;;;;;;;;;;20835187;28;20213;-66
2022/03/29 19:42:33;;;;;;;11.13;6.80;;;;;;;;;;20872499;28;20237;-66
2022/03/29 19:52:53;;;;;;;10.83;6.40;;;;;;;;;;20890928;28;20209;-66
2022/03/29 20:02:55;;;;;;;10.53;5.47;;;;;;;;;;20859269;28;20233;-66
2022/03/29 20:12:58;;;;;;;11.77;6.67;;;15.00;99.90;;;;;;20883779;28;20217;-67
2022/03/29 20:23:00;;;;;;;11.80;6.70;;;;;;;;;;20793776;28;20823;-67
2022/03/29 20:33:02;;;;;;;15.20;7.70;;;;;;;;;;20835503;28;20620;-67
2022/03/29 20:43:04;;;;;;;14.20;7.80;;;;;;;;;;20782249;28;20226;-67
2022/03/29 20:53:07;;;;;;;10.13;6.13;;;;;;;;;;20852680;28;20307;-67
2022/03/29 21:03:08;;;;;;;11.67;7.07;;;15.40;99.90;;;;;;20843607;28;20214;-67
2022/03/29 21:13:10;;;;;;;10.17;6.00;;;;;;;;;;20838549;28;20309;-67
2022/03/29 21:23:15;;;;;;;9.13;5.30;;;;;;;;;;20930120;28;20280;-67
2022/03/29 21:33:27;;;;;;;9.47;5.70;;;;;;;;;;20934244;28;20725;-67
2022/03/29 21:43:30;;;;;;;13.17;6.50;;;;;;;;;;20884660;28;20310;-67
2022/03/29 21:53:32;;;;;;;8.17;5.50;;;;;;;;;;20900236;28;20190;-67
2022/03/29 22:03:53;;;;;;;7.90;5.20;;;;;;;;;;20888176;28;20359;-67
2022/03/29 22:14:13;;;;;;;8.13;4.60;;;;;;;;;;20887246;28;20213;-66
2022/03/29 22:24:21;;;;;;;11.37;5.20;;;;;;;;;;20895826;28;20217;-67
2022/03/29 22:34:24;;;;;;;9.33;4.97;;;;;;;;;;20919589;28;20229;-66
2022/03/29 22:44:26;;;;;;;9.30;4.90;;;;;;;;;;20962615;28;20282;-67
2022/03/29 22:54:28;;;;;;;8.03;4.43;;;;;;;;;;20865115;28;20217;-67
2022/03/29 23:04:30;;;;;;;9.13;4.87;;;;;;;;;;20862042;28;20568;-66
2022/03/29 23:14:31;;;;;;;7.60;4.60;;;;;;;;;;20861244;28;20217;-66
2022/03/29 23:24:34;;;;;;;7.57;4.67;;;;;;;;;;20860189;28;20763;-66
2022/03/29 23:34:36;;;;;;;10.13;5.03;;;14.50;99.90;;;;;;20870876;28;20209;-66
2022/03/29 23:44:38;;;;;;;9.47;5.33;;;;;;;;;;20908902;28;20229;-66
2022/03/29 23:54:40;;;;;;;10.37;5.90;;;;;;;;;;20937817;28;20826;-66
